sensor_id;sensor_type;location;lat;lon;timestamp;pressure;altitude;pressure_sealevel;temperature;humidity
38852;BME280;24605;50.092;9.182;2023-01-05T00:01:20;98028.28;;;8.73;100.00
38852;BME280;24605;50.092;9.182;2023-01-05T00:03:47;98030.91;;;8.73;100.00
38852;BME280;24605;50.092;9.182;2023-01-05T00:06:15;98012.44;;;8.66;100.00
38852;BME280;24605;50.092;9.182;2023-01-05T00:08:43;98007.97;;;8.58;100.00
38852;BME280;24605;50.092;9.182;2023-01-05T00:11:12;98015.19;;;8.65;100.00
38852;BME280;24605;50.092;9.182;2023-01-05T00:13:57;98025.16;;;8.69;100.00
38852;BME280;24605;50.092;9.182;2023-01-05T00:16:42;98012.78;;;8.71;100.00
38852;BME280;24605;50.092;9.182;2023-01-05T00:19:26;98019.28;;;8.67;100.00
38852;BME280;24605;50.092;9.182;2023-01-05T00:22:14;97980.34;;;8.56;100.00
38852;BME280;24605;50.092;9.182;2023-01-05T00:24:55;97986.72;;;8.53;100.00
38852;BME280;24605;50.092;9.182;2023-01-05T00:27:23;98009.34;;;8.71;100.00
38852;BME280;24605;50.092;9.182;2023-01-05T00:29:50;98006.56;;;8.72;100.00
38852;BME280;24605;50.092;9.182;2023-01-05T00:32:16;97989.38;;;8.61;100.00
38852;BME280;24605;50.092;9.182;2023-01-05T00:34:43;98011.28;;;8.69;100.00
38852;BME280;24605;50.092;9.182;2023-01-05T00:37:09;98012.09;;;8.69;100.00
38852;BME280;24605;50.092;9.182;2023-01-05T00:39:36;97978.88;;;8.53;100.00
38852;BME280;24605;50.092;9.182;2023-01-05T00:42:03;98002.16;;;8.73;100.00
38852;BME280;24605;50.092;9.182;2023-01-05T00:44:30;97986.59;;;8.63;100.00
38852;BME280;24605;50.092;9.182;2023-01-05T00:46:57;97998.06;;;8.70;100.00
38852;BME280;24605;50.092;9.182;2023-01-05T00:49:23;97990.38;;;8.69;100.00
38852;BME280;24605;50.092;9.182;2023-01-05T00:51:50;98005.94;;;8.78;100.00
38852;BME280;24605;50.092;9.182;2023-01-05T00:54:16;98009.69;;;8.76;100.00
38852;BME280;24605;50.092;9.182;2023-01-05T00:56:43;97990.38;;;8.69;100.00
38852;BME280;24605;50.092;9.182;2023-01-05T00:59:13;97997.75;;;8.73;100.00
38852;BME280;24605;50.092;9.182;2023-01-05T01:01:41;97983.50;;;8.68;100.00
38852;BME280;24605;50.092;9.182;2023-01-05T01:04:10;97997.59;;;8.75;100.00
38852;BME280;24605;50.092;9.182;2023-01-05T01:06:36;98006.72;;;8.71;100.00
38852;BME280;24605;50.092;9.182;2023-01-05T01:09:03;97945.59;;;8.37;100.00
38852;BME280;24605;50.092;9.182;2023-01-05T01:11:29;97975.47;;;8.61;100.00
38852;BME280;24605;50.092;9.182;2023-01-05T01:13:56;98012.31;;;8.76;100.00
38852;BME280;24605;50.092;9.182;2023-01-05T01:16:23;98015.88;;;8.75;100.00
38852;BME280;24605;50.092;9.182;2023-01-05T01:18:51;98001.66;;;8.69;100.00
38852;BME280;24605;50.092;9.182;2023-01-05T01:21:17;98004.63;;;8.74;100.00
38852;BME280;24605;50.092;9.182;2023-01-05T01:23:44;98000.06;;;8.76;100.00
38852;BME280;24605;50.092;9.182;2023-01-05T01:26:11;98013.59;;;8.72;100.00
38852;BME280;24605;50.092;9.182;2023-01-05T01:28:39;98017.38;;;8.77;100.00
38852;BME280;24605;50.092;9.182;2023-01-05T01:31:05;98014.41;;;8.72;100.00
38852;BME280;24605;50.092;9.182;2023-01-05T01:33:32;98009.34;;;8.71;100.00
38852;BME280;24605;50.092;9.182;2023-01-05T01:36:03;98014.25;;;8.74;100.00
38852;BME280;24605;50.092;9.182;2023-01-05T01:38:30;98016.22;;;8.72;100.00
38852;BME280;24605;50.092;9.182;2023-01-05T01:40:56;98026.22;;;8.76;100.00
38852;BME280;24605;50.092;9.182;2023-01-05T01:43:41;98026.34;;;8.75;100.00
38852;BME280;24605;50.092;9.182;2023-01-05T01:46:08;98035.31;;;8.72;100.00
38852;BME280;24605;50.092;9.182;2023-01-05T01:48:35;98014.88;;;8.68;100.00
38852;BME280;24605;50.092;9.182;2023-01-05T01:51:08;98037.69;;;8.84;100.00
38852;BME280;24605;50.092;9.182;2023-01-05T01:53:38;98020.19;;;8.84;100.00
38852;BME280;24605;50.092;9.182;2023-01-05T01:56:07;98035.09;;;8.92;100.00
38852;BME280;24605;50.092;9.182;2023-01-05T01:58:35;98026.25;;;8.85;100.00
38852;BME280;24605;50.092;9.182;2023-01-05T02:01:02;98026.44;;;8.91;100.00
38852;BME280;24605;50.092;9.182;2023-01-05T02:03:30;98021.53;;;8.88;100.00
38852;BME280;24605;50.092;9.182;2023-01-05T02:05:57;98019.88;;;8.87;100.00
38852;BME280;24605;50.092;9.182;2023-01-05T02:08:26;98024.94;;;8.89;100.00
38852;BME280;24605;50.092;9.182;2023-01-05T02:11:04;98008.41;;;8.80;100.00
38852;BME280;24605;50.092;9.182;2023-01-05T02:13:47;98030.00;;;8.90;100.00
38852;BME280;24605;50.092;9.182;2023-01-05T02:16:21;98034.94;;;8.93;100.00
38852;BME280;24605;50.092;9.182;2023-01-05T02:19:01;98031.34;;;8.94;100.00
38852;BME280;24605;50.092;9.182;2023-01-05T02:21:39;98031.19;;;8.96;100.00
38852;BME280;24605;50.092;9.182;2023-01-05T02:24:41;98025.31;;;8.94;100.00
38852;BME280;24605;50.092;9.182;2023-01-05T02:27:38;98030.06;;;8.99;100.00
38852;BME280;24605;50.092;9.182;2023-01-05T02:33:31;98037.09;;;8.98;100.00
38852;BME280;24605;50.092;9.182;2023-01-05T02:36:05;98035.44;;;8.97;100.00
38852;BME280;24605;50.092;9.182;2023-01-05T02:38:39;98030.72;;;9.01;100.00
38852;BME280;24605;50.092;9.182;2023-01-05T02:41:12;98020.09;;;8.94;100.00
38852;BME280;24605;50.092;9.182;2023-01-05T02:43:43;98016.00;;;9.00;100.00
38852;BME280;24605;50.092;9.182;2023-01-05T02:46:09;98010.13;;;8.98;100.00
38852;BME280;24605;50.092;9.182;2023-01-05T02:48:38;98034.00;;;9.03;100.00
38852;BME280;24605;50.092;9.182;2023-01-05T02:51:09;98030.91;;;9.07;100.00
38852;BME280;24605;50.092;9.182;2023-01-05T02:53:40;98025.69;;;9.07;100.00
38852;BME280;24605;50.092;9.182;2023-01-05T02:56:12;97999.97;;;8.94;100.00
38852;BME280;24605;50.092;9.182;2023-01-05T02:58:44;98007.53;;;8.98;100.00
38852;BME280;24605;50.092;9.182;2023-01-05T03:01:15;98003.94;;;8.99;100.00
38852;BME280;24605;50.092;9.182;2023-01-05T03:03:48;98013.09;;;9.03;100.00
38852;BME280;24605;50.092;9.182;2023-01-05T03:06:20;98035.94;;;9.01;100.00
38852;BME280;24605;50.092;9.182;2023-01-05T03:08:51;98033.34;;;9.01;100.00
38852;BME280;24605;50.092;9.182;2023-01-05T03:11:19;98029.44;;;9.05;100.00
38852;BME280;24605;50.092;9.182;2023-01-05T03:14:07;98035.66;;;9.04;100.00
38852;BME280;24605;50.092;9.182;2023-01-05T03:16:36;98047.06;;;9.03;100.00
38852;BME280;24605;50.092;9.182;2023-01-05T03:19:07;98040.38;;;9.00;100.00
38852;BME280;24605;50.092;9.182;2023-01-05T03:21:53;98035.13;;;9.00;100.00
38852;BME280;24605;50.092;9.182;2023-01-05T03:24:39;98055.09;;;9.01;100.00
38852;BME280;24605;50.092;9.182;2023-01-05T03:27:25;98048.50;;;8.97;100.00
38852;BME280;24605;50.092;9.182;2023-01-05T03:30:10;98053.53;;;8.90;100.00
38852;BME280;24605;50.092;9.182;2023-01-05T03:33:01;98061.03;;;8.85;100.00
38852;BME280;24605;50.092;9.182;2023-01-05T03:35:51;98043.66;;;8.76;100.00
38852;BME280;24605;50.092;9.182;2023-01-05T03:38:25;98052.69;;;8.82;100.00
38852;BME280;24605;50.092;9.182;2023-01-05T03:40:57;98063.16;;;8.82;100.00
38852;BME280;24605;50.092;9.182;2023-01-05T03:43:25;98053.31;;;8.75;100.00
38852;BME280;24605;50.092;9.182;2023-01-05T03:45:54;98066.69;;;8.72;100.00
38852;BME280;24605;50.092;9.182;2023-01-05T03:48:22;98064.38;;;8.69;100.00
38852;BME280;24605;50.092;9.182;2023-01-05T03:50:50;98059.31;;;8.68;100.00
38852;BME280;24605;50.092;9.182;2023-01-05T03:53:17;98062.59;;;8.70;100.00
38852;BME280;24605;50.092;9.182;2023-01-05T03:55:43;98063.22;;;8.64;100.00
38852;BME280;24605;50.092;9.182;2023-01-05T03:58:10;98059.13;;;8.69;100.00
38852;BME280;24605;50.092;9.182;2023-01-05T04:00:36;98058.03;;;8.72;100.00
38852;BME280;24605;50.092;9.182;2023-01-05T04:03:03;98073.03;;;8.70;100.00
38852;BME280;24605;50.092;9.182;2023-01-05T04:05:34;98006.50;;;8.38;100.00
38852;BME280;24605;50.092;9.182;2023-01-05T04:08:05;98069.13;;;8.74;100.00
38852;BME280;24605;50.092;9.182;2023-01-05T04:10:32;98051.94;;;8.63;100.00
38852;BME280;24605;50.092;9.182;2023-01-05T04:12:58;98072.06;;;8.71;100.00
38852;BME280;24605;50.092;9.182;2023-01-05T04:15:25;98070.72;;;8.67;100.00
38852;BME280;24605;50.092;9.182;2023-01-05T04:17:51;98084.47;;;8.69;100.00
38852;BME280;24605;50.092;9.182;2023-01-05T04:20:18;98076.97;;;8.74;100.00
38852;BME280;24605;50.092;9.182;2023-01-05T04:22:44;98067.44;;;8.65;100.00
38852;BME280;24605;50.092;9.182;2023-01-05T04:25:12;98044.72;;;8.57;100.00
38852;BME280;24605;50.092;9.182;2023-01-05T04:27:39;98078.31;;;8.78;100.00
38852;BME280;24605;50.092;9.182;2023-01-05T04:30:06;98074.75;;;8.79;100.00
38852;BME280;24605;50.092;9.182;2023-01-05T04:32:33;98075.53;;;8.80;100.00
38852;BME280;24605;50.092;9.182;2023-01-05T04:35:00;98061.25;;;8.66;100.00
38852;BME280;24605;50.092;9.182;2023-01-05T04:37:26;98085.06;;;8.89;100.00
38852;BME280;24605;50.092;9.182;2023-01-05T04:39:53;98089.81;;;8.85;100.00
38852;BME280;24605;50.092;9.182;2023-01-05T04:42:21;98098.63;;;8.84;100.00
38852;BME280;24605;50.092;9.182;2023-01-05T04:44:47;98082.94;;;8.84;100.00
38852;BME280;24605;50.092;9.182;2023-01-05T04:47:14;98073.59;;;8.82;100.00
38852;BME280;24605;50.092;9.182;2023-01-05T04:49:40;98070.53;;;8.86;100.00
38852;BME280;24605;50.092;9.182;2023-01-05T04:52:07;98087.66;;;8.81;100.00
38852;BME280;24605;50.092;9.182;2023-01-05T04:54:34;98077.19;;;8.81;100.00
38852;BME280;24605;50.092;9.182;2023-01-05T04:57:00;98077.50;;;8.77;100.00
38852;BME280;24605;50.092;9.182;2023-01-05T04:59:29;98086.16;;;8.78;100.00
38852;BME280;24605;50.092;9.182;2023-01-05T05:01:56;98096.78;;;8.76;100.00
38852;BME280;24605;50.092;9.182;2023-01-05T05:04:22;98076.88;;;8.57;100.00
38852;BME280;24605;50.092;9.182;2023-01-05T05:06:49;98106.41;;;8.76;100.00
38852;BME280;24605;50.092;9.182;2023-01-05T05:09:15;98093.13;;;8.69;100.00
38852;BME280;24605;50.092;9.182;2023-01-05T05:11:41;98113.91;;;8.71;100.00
38852;BME280;24605;50.092;9.182;2023-01-05T05:14:08;98111.88;;;8.65;100.00
38852;BME280;24605;50.092;9.182;2023-01-05T05:16:36;98124.66;;;8.68;100.00
38852;BME280;24605;50.092;9.182;2023-01-05T05:19:03;98119.41;;;8.68;100.00
38852;BME280;24605;50.092;9.182;2023-01-05T05:21:29;98127.19;;;8.59;100.00
38852;BME280;24605;50.092;9.182;2023-01-05T05:23:56;98120.25;;;8.50;100.00
38852;BME280;24605;50.092;9.182;2023-01-05T05:26:22;98105.00;;;8.45;100.00
38852;BME280;24605;50.092;9.182;2023-01-05T05:28:48;98147.28;;;8.59;100.00
38852;BME280;24605;50.092;9.182;2023-01-05T05:31:15;98148.84;;;8.52;100.00
38852;BME280;24605;50.092;9.182;2023-01-05T05:33:43;98141.59;;;8.45;100.00
38852;BME280;24605;50.092;9.182;2023-01-05T05:36:09;98149.72;;;8.42;100.00
38852;BME280;24605;50.092;9.182;2023-01-05T05:38:36;98155.94;;;8.41;100.00
38852;BME280;24605;50.092;9.182;2023-01-05T05:41:02;98143.84;;;8.40;100.00
38852;BME280;24605;50.092;9.182;2023-01-05T05:43:28;98156.22;;;8.38;100.00
38852;BME280;24605;50.092;9.182;2023-01-05T05:45:55;98153.78;;;8.37;100.00
38852;BME280;24605;50.092;9.182;2023-01-05T05:48:21;98151.53;;;8.42;100.00
38852;BME280;24605;50.092;9.182;2023-01-05T05:50:49;98153.78;;;8.37;100.00
38852;BME280;24605;50.092;9.182;2023-01-05T05:53:16;98153.78;;;8.37;100.00
38852;BME280;24605;50.092;9.182;2023-01-05T05:55:46;98154.75;;;8.36;100.00
38852;BME280;24605;50.092;9.182;2023-01-05T05:58:13;98142.25;;;8.29;100.00
38852;BME280;24605;50.092;9.182;2023-01-05T06:00:39;98145.53;;;8.31;100.00
38852;BME280;24605;50.092;9.182;2023-01-05T06:03:06;98153.81;;;8.27;100.00
38852;BME280;24605;50.092;9.182;2023-01-05T06:05:32;98152.50;;;8.23;100.00
38852;BME280;24605;50.092;9.182;2023-01-05T06:08:00;98149.56;;;8.26;100.00
38852;BME280;24605;50.092;9.182;2023-01-05T06:10:27;98151.53;;;8.24;100.00
38852;BME280;24605;50.092;9.182;2023-01-05T06:12:54;98152.94;;;8.18;100.00
38852;BME280;24605;50.092;9.182;2023-01-05T06:15:21;98154.44;;;8.21;100.00
38852;BME280;24605;50.092;9.182;2023-01-05T06:17:48;98153.91;;;8.17;100.00
38852;BME280;24605;50.092;9.182;2023-01-05T06:20:16;98142.88;;;8.05;100.00
38852;BME280;24605;50.092;9.182;2023-01-05T06:22:42;98154.19;;;8.14;100.00
38852;BME280;24605;50.092;9.182;2023-01-05T06:25:10;98130.91;;;8.03;100.00
38852;BME280;24605;50.092;9.182;2023-01-05T06:27:36;98165.03;;;8.19;100.00
38852;BME280;24605;50.092;9.182;2023-01-05T06:30:04;98161.06;;;8.15;100.00
38852;BME280;24605;50.092;9.182;2023-01-05T06:32:30;98167.66;;;8.19;100.00
38852;BME280;24605;50.092;9.182;2023-01-05T06:34:57;98165.16;;;8.18;100.00
38852;BME280;24605;50.092;9.182;2023-01-05T06:37:23;98133.50;;;8.03;100.00
38852;BME280;24605;50.092;9.182;2023-01-05T06:39:50;98168.53;;;8.28;100.00
38852;BME280;24605;50.092;9.182;2023-01-05T06:42:18;98156.31;;;8.28;100.00
38852;BME280;24605;50.092;9.182;2023-01-05T06:44:44;98156.59;;;8.25;100.00
38852;BME280;24605;50.092;9.182;2023-01-05T06:47:11;98127.03;;;8.07;100.00
38852;BME280;24605;50.092;9.182;2023-01-05T06:49:38;98149.28;;;8.29;100.00
38852;BME280;24605;50.092;9.182;2023-01-05T06:52:05;98149.44;;;8.27;100.00
38852;BME280;24605;50.092;9.182;2023-01-05T06:54:32;98160.53;;;8.29;100.00
38852;BME280;24605;50.092;9.182;2023-01-05T06:56:58;98168.69;;;8.26;100.00
38852;BME280;24605;50.092;9.182;2023-01-05T06:59:26;98150.84;;;8.22;100.00
38852;BME280;24605;50.092;9.182;2023-01-05T07:01:53;98159.72;;;8.29;100.00
38852;BME280;24605;50.092;9.182;2023-01-05T07:04:19;98155.63;;;8.26;100.00
38852;BME280;24605;50.092;9.182;2023-01-05T07:06:46;98161.38;;;8.30;100.00
38852;BME280;24605;50.092;9.182;2023-01-05T07:09:12;98171.00;;;8.29;100.00
38852;BME280;24605;50.092;9.182;2023-01-05T07:11:39;98174.13;;;8.33;100.00
38852;BME280;24605;50.092;9.182;2023-01-05T07:14:05;98181.66;;;8.36;100.00
38852;BME280;24605;50.092;9.182;2023-01-05T07:16:33;98182.06;;;8.41;100.00
38852;BME280;24605;50.092;9.182;2023-01-05T07:19:00;98195.78;;;8.43;100.00
38852;BME280;24605;50.092;9.182;2023-01-05T07:21:26;98180.25;;;8.42;100.00
38852;BME280;24605;50.092;9.182;2023-01-05T07:23:54;98191.38;;;8.44;100.00
38852;BME280;24605;50.092;9.182;2023-01-05T07:26:20;98172.50;;;8.32;100.00
38852;BME280;24605;50.092;9.182;2023-01-05T07:28:47;98194.97;;;8.43;100.00
38852;BME280;24605;50.092;9.182;2023-01-05T07:31:14;98193.59;;;8.49;100.00
38852;BME280;24605;50.092;9.182;2023-01-05T07:33:42;98218.06;;;8.48;100.00
38852;BME280;24605;50.092;9.182;2023-01-05T07:36:10;98212.69;;;8.49;100.00
38852;BME280;24605;50.092;9.182;2023-01-05T07:38:37;98207.63;;;8.48;100.00
38852;BME280;24605;50.092;9.182;2023-01-05T07:41:04;98223.69;;;8.43;100.00
38852;BME280;24605;50.092;9.182;2023-01-05T07:43:30;98240.16;;;8.53;100.00
38852;BME280;24605;50.092;9.182;2023-01-05T07:45:57;98217.88;;;8.31;100.00
38852;BME280;24605;50.092;9.182;2023-01-05T07:48:24;98246.09;;;8.45;100.00
38852;BME280;24605;50.092;9.182;2023-01-05T07:50:52;98256.03;;;8.42;100.00
38852;BME280;24605;50.092;9.182;2023-01-05T07:53:18;98215.91;;;8.33;100.00
38852;BME280;24605;50.092;9.182;2023-01-05T07:55:54;98219.22;;;8.35;100.00
38852;BME280;24605;50.092;9.182;2023-01-05T07:58:21;98233.19;;;8.44;100.00
38852;BME280;24605;50.092;9.182;2023-01-05T08:00:47;98237.94;;;8.30;100.00
38852;BME280;24605;50.092;9.182;2023-01-05T08:03:14;98247.66;;;8.38;100.00
38852;BME280;24605;50.092;9.182;2023-01-05T08:05:41;98257.16;;;8.39;100.00
38852;BME280;24605;50.092;9.182;2023-01-05T08:08:08;98244.88;;;8.40;100.00
38852;BME280;24605;50.092;9.182;2023-01-05T08:10:37;98249.16;;;8.41;100.00
38852;BME280;24605;50.092;9.182;2023-01-05T08:13:04;98228.44;;;8.29;100.00
38852;BME280;24605;50.092;9.182;2023-01-05T08:15:49;98260.97;;;8.45;100.00
38852;BME280;24605;50.092;9.182;2023-01-05T08:18:16;98262.47;;;8.48;100.00
38852;BME280;24605;50.092;9.182;2023-01-05T08:20:48;98268.06;;;8.53;100.00
38852;BME280;24605;50.092;9.182;2023-01-05T08:23:16;98270.31;;;8.48;100.00
38852;BME280;24605;50.092;9.182;2023-01-05T08:25:43;98288.44;;;8.49;100.00
38852;BME280;24605;50.092;9.182;2023-01-05T08:28:09;98295.16;;;8.52;100.00
38852;BME280;24605;50.092;9.182;2023-01-05T08:30:36;98296.00;;;8.52;100.00
38852;BME280;24605;50.092;9.182;2023-01-05T08:33:02;98293.28;;;8.44;100.00
38852;BME280;24605;50.092;9.182;2023-01-05T08:35:30;98298.09;;;8.39;100.00
38852;BME280;24605;50.092;9.182;2023-01-05T08:37:57;98291.81;;;8.31;100.00
38852;BME280;24605;50.092;9.182;2023-01-05T08:40:24;98285.81;;;8.21;100.00
38852;BME280;24605;50.092;9.182;2023-01-05T08:42:51;98220.59;;;7.83;100.00
38852;BME280;24605;50.092;9.182;2023-01-05T08:45:18;98295.84;;;8.26;100.00
38852;BME280;24605;50.092;9.182;2023-01-05T08:47:44;98302.94;;;8.34;100.00
38852;BME280;24605;50.092;9.182;2023-01-05T08:50:11;98303.38;;;8.29;100.00
38852;BME280;24605;50.092;9.182;2023-01-05T08:52:37;98302.03;;;8.25;100.00
38852;BME280;24605;50.092;9.182;2023-01-05T08:55:05;98297.78;;;8.24;100.00
38852;BME280;24605;50.092;9.182;2023-01-05T08:57:33;98291.56;;;8.25;100.00
38852;BME280;24605;50.092;9.182;2023-01-05T09:00:00;98306.53;;;8.32;100.00
38852;BME280;24605;50.092;9.182;2023-01-05T09:02:27;98308.44;;;8.40;100.00
38852;BME280;24605;50.092;9.182;2023-01-05T09:04:53;98311.84;;;8.41;100.00
38852;BME280;24605;50.092;9.182;2023-01-05T09:07:20;98311.47;;;8.36;100.00
38852;BME280;24605;50.092;9.182;2023-01-05T09:09:46;98317.94;;;8.31;100.00
38852;BME280;24605;50.092;9.182;2023-01-05T09:12:13;98310.78;;;8.34;100.00
38852;BME280;24605;50.092;9.182;2023-01-05T09:14:41;98317.13;;;8.31;100.00
38852;BME280;24605;50.092;9.182;2023-01-05T09:17:07;98323.59;;;8.27;100.00
38852;BME280;24605;50.092;9.182;2023-01-05T09:19:34;98318.69;;;8.24;100.00
38852;BME280;24605;50.092;9.182;2023-01-05T09:22:00;98318.25;;;8.28;100.00
38852;BME280;24605;50.092;9.182;2023-01-05T09:24:27;98325.09;;;8.29;100.00
38852;BME280;24605;50.092;9.182;2023-01-05T09:26:55;98324.66;;;8.34;100.00
38852;BME280;24605;50.092;9.182;2023-01-05T09:29:22;98332.75;;;8.41;100.00
38852;BME280;24605;50.092;9.182;2023-01-05T09:31:50;98327.34;;;8.24;100.00
38852;BME280;24605;50.092;9.182;2023-01-05T09:34:16;98348.50;;;8.21;100.00
38852;BME280;24605;50.092;9.182;2023-01-05T09:36:43;98335.38;;;8.03;100.00
38852;BME280;24605;50.092;9.182;2023-01-05T09:39:10;98348.59;;;7.92;100.00
38852;BME280;24605;50.092;9.182;2023-01-05T09:41:39;98339.16;;;7.81;100.00
38852;BME280;24605;50.092;9.182;2023-01-05T09:44:15;98350.56;;;7.80;100.00
38852;BME280;24605;50.092;9.182;2023-01-05T09:46:49;98351.69;;;7.77;100.00
38852;BME280;24605;50.092;9.182;2023-01-05T09:49:20;98338.75;;;7.76;100.00
38852;BME280;24605;50.092;9.182;2023-01-05T09:51:48;98321.47;;;7.75;100.00
38852;BME280;24605;50.092;9.182;2023-01-05T09:54:17;98317.22;;;7.74;100.00
38852;BME280;24605;50.092;9.182;2023-01-05T09:56:45;98358.72;;;8.05;100.00
38852;BME280;24605;50.092;9.182;2023-01-05T09:59:14;98362.03;;;8.07;100.00
38852;BME280;24605;50.092;9.182;2023-01-05T10:01:45;98363.69;;;8.08;100.00
38852;BME280;24605;50.092;9.182;2023-01-05T10:04:16;98369.06;;;8.06;100.00
38852;BME280;24605;50.092;9.182;2023-01-05T10:06:45;98348.06;;;7.88;100.00
38852;BME280;24605;50.092;9.182;2023-01-05T10:09:17;98363.28;;;8.03;100.00
38852;BME280;24605;50.092;9.182;2023-01-05T10:11:48;98367.41;;;8.05;100.00
38852;BME280;24605;50.092;9.182;2023-01-05T10:14:37;98370.78;;;8.15;100.00
38852;BME280;24605;50.092;9.182;2023-01-05T10:17:08;98363.31;;;8.30;100.00
38852;BME280;24605;50.092;9.182;2023-01-05T10:19:39;98338.63;;;8.15;100.00
38852;BME280;24605;50.092;9.182;2023-01-05T10:22:15;98388.56;;;8.40;100.00
38852;BME280;24605;50.092;9.182;2023-01-05T10:24:51;98384.84;;;8.42;100.00
38852;BME280;24605;50.092;9.182;2023-01-05T10:27:24;98370.44;;;8.38;100.00
38852;BME280;24605;50.092;9.182;2023-01-05T10:29:56;98386.34;;;8.55;100.00
38852;BME280;24605;50.092;9.182;2023-01-05T10:32:25;98392.16;;;8.49;100.00
38852;BME280;24605;50.092;9.182;2023-01-05T10:34:58;98393.50;;;8.53;100.00
38852;BME280;24605;50.092;9.182;2023-01-05T10:37:36;98393.81;;;8.50;100.00
38852;BME280;24605;50.092;9.182;2023-01-05T10:40:23;98393.69;;;8.41;100.00
38852;BME280;24605;50.092;9.182;2023-01-05T10:43:02;98396.94;;;8.43;100.00
38852;BME280;24605;50.092;9.182;2023-01-05T10:45:35;98400.28;;;8.36;100.00
38852;BME280;24605;50.092;9.182;2023-01-05T10:48:02;98397.00;;;8.34;100.00
38852;BME280;24605;50.092;9.182;2023-01-05T10:50:38;98388.38;;;8.23;100.00
38852;BME280;24605;50.092;9.182;2023-01-05T10:53:11;98395.63;;;8.29;100.00
38852;BME280;24605;50.092;9.182;2023-01-05T10:55:50;98388.09;;;8.26;100.00
38852;BME280;24605;50.092;9.182;2023-01-05T10:58:25;98399.66;;;8.24;100.00
38852;BME280;24605;50.092;9.182;2023-01-05T11:00:53;98398.91;;;8.31;100.00
38852;BME280;24605;50.092;9.182;2023-01-05T11:03:32;98400.16;;;8.37;100.00
38852;BME280;24605;50.092;9.182;2023-01-05T11:06:01;98400.13;;;8.47;100.00
38852;BME280;24605;50.092;9.182;2023-01-05T11:08:30;98399.56;;;8.53;100.00
38852;BME280;24605;50.092;9.182;2023-01-05T11:10:58;98396.47;;;8.68;100.00
38852;BME280;24605;50.092;9.182;2023-01-05T11:13:31;98403.25;;;8.88;100.00
38852;BME280;24605;50.092;9.182;2023-01-05T11:16:02;98404.00;;;8.99;100.00
38852;BME280;24605;50.092;9.182;2023-01-05T11:18:35;98389.66;;;9.03;100.00
38852;BME280;24605;50.092;9.182;2023-01-05T11:21:12;98380.34;;;8.90;100.00
38852;BME280;24605;50.092;9.182;2023-01-05T11:23:41;98401.47;;;9.07;100.00
38852;BME280;24605;50.092;9.182;2023-01-05T11:26:29;98396.00;;;9.00;100.00
38852;BME280;24605;50.092;9.182;2023-01-05T11:29:09;98361.00;;;8.83;100.00
38852;BME280;24605;50.092;9.182;2023-01-05T11:31:39;98407.34;;;9.09;100.00
38852;BME280;24605;50.092;9.182;2023-01-05T11:34:16;98401.69;;;9.14;100.00
38852;BME280;24605;50.092;9.182;2023-01-05T11:36:54;98399.75;;;9.16;100.00
38852;BME280;24605;50.092;9.182;2023-01-05T11:39:27;98402.44;;;9.24;100.00
38852;BME280;24605;50.092;9.182;2023-01-05T11:42:06;98399.47;;;9.19;100.00
38852;BME280;24605;50.092;9.182;2023-01-05T11:44:34;98377.47;;;8.93;100.00
38852;BME280;24605;50.092;9.182;2023-01-05T11:47:03;98406.72;;;9.25;100.00
38852;BME280;24605;50.092;9.182;2023-01-05T11:49:30;98385.94;;;9.23;100.00
38852;BME280;24605;50.092;9.182;2023-01-05T11:51:58;98402.59;;;9.22;100.00
38852;BME280;24605;50.092;9.182;2023-01-05T11:54:31;98407.84;;;9.22;100.00
38852;BME280;24605;50.092;9.182;2023-01-05T11:57:15;98413.38;;;9.37;100.00
38852;BME280;24605;50.092;9.182;2023-01-05T11:59:43;98410.22;;;9.52;100.00
38852;BME280;24605;50.092;9.182;2023-01-05T12:02:44;98411.63;;;9.46;100.00
38852;BME280;24605;50.092;9.182;2023-01-05T12:05:23;98408.72;;;9.31;100.00
38852;BME280;24605;50.092;9.182;2023-01-05T12:07:55;98413.38;;;9.37;100.00
38852;BME280;24605;50.092;9.182;2023-01-05T12:10:34;98402.47;;;9.42;100.00
38852;BME280;24605;50.092;9.182;2023-01-05T12:13:10;98400.88;;;9.49;100.00
38852;BME280;24605;50.092;9.182;2023-01-05T12:16:03;98403.28;;;9.61;100.00
38852;BME280;24605;50.092;9.182;2023-01-05T12:18:52;98395.03;;;9.74;100.00
38852;BME280;24605;50.092;9.182;2023-01-05T12:21:24;98399.66;;;9.62;100.00
38852;BME280;24605;50.092;9.182;2023-01-05T12:24:29;98392.47;;;9.64;100.00
38852;BME280;24605;50.092;9.182;2023-01-05T12:27:10;98375.31;;;9.43;100.00
38852;BME280;24605;50.092;9.182;2023-01-05T12:29:50;98391.28;;;9.76;100.00
38852;BME280;24605;50.092;9.182;2023-01-05T12:32:37;98393.72;;;9.78;100.00
38852;BME280;24605;50.092;9.182;2023-01-05T12:35:20;98394.41;;;9.80;100.00
38852;BME280;24605;50.092;9.182;2023-01-05T12:38:02;98403.28;;;9.87;100.00
38852;BME280;24605;50.092;9.182;2023-01-05T12:40:43;98397.81;;;9.98;100.00
38852;BME280;24605;50.092;9.182;2023-01-05T12:43:15;98407.03;;;10.11;100.00
38852;BME280;24605;50.092;9.182;2023-01-05T12:46:04;98410.06;;;9.98;100.00
38852;BME280;24605;50.092;9.182;2023-01-05T12:48:39;98406.47;;;9.99;100.00
38852;BME280;24605;50.092;9.182;2023-01-05T12:51:11;98410.59;;;10.01;100.00
38852;BME280;24605;50.092;9.182;2023-01-05T12:53:47;98409.53;;;10.12;100.00
38852;BME280;24605;50.092;9.182;2023-01-05T12:56:22;98410.00;;;10.08;100.00
38852;BME280;24605;50.092;9.182;2023-01-05T12:59:01;98388.16;;;9.99;100.00
38852;BME280;24605;50.092;9.182;2023-01-05T13:01:30;98411.72;;;9.99;100.00
38852;BME280;24605;50.092;9.182;2023-01-05T13:04:02;98399.25;;;9.93;100.00
38852;BME280;24605;50.092;9.182;2023-01-05T13:06:36;98393.97;;;9.84;100.00
38852;BME280;24605;50.092;9.182;2023-01-05T13:09:11;98402.59;;;10.03;100.00
38852;BME280;24605;50.092;9.182;2023-01-05T13:11:45;98411.88;;;9.97;100.00
38852;BME280;24605;50.092;9.182;2023-01-05T13:14:15;98413.38;;;10.00;100.00
38852;BME280;24605;50.092;9.182;2023-01-05T13:16:46;98389.84;;;9.82;100.00
38852;BME280;24605;50.092;9.182;2023-01-05T13:19:18;98419.03;;;10.13;100.00
38852;BME280;24605;50.092;9.182;2023-01-05T13:21:46;98413.25;;;10.10;100.00